.
WxDataArchive / Data Records for 2013-12-05
2013-12-04 December 2013 2013-12-06

Data Records for Thursday, 05 December 2013

Time	Temp	Chill	HIndex	Humid	Dewpt	 Wind 	HiWind	WindDir	Rain 	Barom 
-----	----	-----	------	-----	-----	------	------	-------	-----	----- 
00:00	58.6	58.6	58.6	87	54.7	0	4	248	0.00	29.623 
00:05	58.6	58.6	58.6	87	54.7	1	5	248	0.00	29.623 
00:10	58.9	58.9	58.9	87	55.0	1	4	248	0.00	29.623 
00:15	59.2	59.2	59.2	86	55.0	1	5	248	0.00	29.630 
00:20	59.3	59.3	59.3	86	55.1	1	5	248	0.00	29.630 
00:25	59.3	59.3	59.3	85	54.8	1	3	248	0.00	29.630 
00:30	59.3	59.3	59.3	85	54.8	1	3	248	0.00	29.628 
00:35	59.3	59.3	59.3	85	54.8	1	7	248	0.00	29.628 
00:40	59.3	59.3	59.3	85	54.8	1	4	248	0.00	29.628 
00:45	59.2	59.2	59.2	85	54.7	1	3	248	0.00	29.634 
00:50	59.2	59.2	59.2	85	54.7	1	4	248	0.00	29.634 
00:55	59.0	59.0	59.0	85	54.5	1	4	248	0.00	29.634 
01:00	59.0	59.0	59.0	85	54.5	2	5	248	0.00	29.638 
01:05	59.0	59.0	59.0	85	54.5	2	6	248	0.00	29.638 
01:10	59.0	59.0	59.0	85	54.5	2	9	248	0.00	29.638 
01:15	59.0	59.0	59.0	85	54.5	1	4	248	0.00	29.631 
01:20	58.9	58.9	58.9	85	54.4	2	5	248	0.00	29.631 
01:25	58.9	58.9	58.9	85	54.4	2	7	248	0.00	29.631 
01:30	58.7	58.7	58.7	84	53.9	1	4	248	0.00	29.629 
01:35	58.6	58.6	58.6	85	54.1	1	3	248	0.00	29.629 
01:40	58.4	58.4	58.4	85	53.9	1	5	248	0.00	29.629 
01:45	58.4	58.4	58.4	85	53.9	1	4	248	0.00	29.634 
01:50	58.3	58.3	58.3	85	53.8	1	4	248	0.00	29.634 
01:55	58.3	58.3	58.3	86	54.1	1	5	248	0.00	29.634 
02:00	58.1	58.1	58.1	86	53.9	1	4	248	0.00	29.647 
02:05	58.0	58.0	58.0	86	53.8	1	4	248	0.00	29.647 
02:10	58.0	58.0	58.0	86	53.8	1	4	248	0.00	29.647 
02:15	58.0	58.0	58.0	86	53.8	2	6	248	0.00	29.648 
02:20	58.0	58.0	58.0	86	53.8	1	4	270	0.00	29.648 
02:25	58.0	58.0	58.0	86	53.8	1	6	248	0.00	29.648 
02:30	58.0	58.0	58.0	86	53.8	1	5	248	0.00	29.651 
02:35	58.0	58.0	58.0	86	53.8	1	5	248	0.00	29.651 
02:40	57.8	57.8	57.8	86	53.6	1	4	248	0.00	29.651 
02:45	57.8	57.8	57.8	86	53.6	1	6	225	0.00	29.661 
02:50	57.8	57.8	57.8	86	53.6	1	4	248	0.00	29.661 
02:55	57.8	57.8	57.8	86	53.6	2	6	270	0.00	29.661 
03:00	57.8	57.8	57.8	85	53.3	2	6	248	0.00	29.663 
03:05	57.8	57.8	57.8	85	53.3	2	6	248	0.00	29.663 
03:10	57.5	57.5	57.5	83	52.4	4	7	248	0.00	29.663 
03:15	57.0	57.0	57.0	81	51.2	3	8	270	0.00	29.680 
03:20	56.7	56.7	56.7	81	50.9	3	7	248	0.00	29.680 
03:25	56.3	56.3	56.3	81	50.5	2	5	248	0.00	29.680 
03:30	55.9	55.9	55.9	81	50.2	2	6	270	0.00	29.693 
03:35	55.4	55.4	55.4	81	49.7	2	6	270	0.00	29.693 
03:40	55.0	55.0	55.0	80	48.9	2	6	270	0.00	29.693 
03:45	54.5	54.5	54.5	81	48.8	2	7	248	0.00	29.693 
03:50	54.2	54.2	54.2	81	48.5	2	6	248	0.00	29.693 
03:55	53.9	53.9	53.9	82	48.5	3	6	270	0.00	29.693 
04:00	53.3	53.3	53.3	82	47.9	3	6	270	0.00	29.703 
04:05	51.9	51.9	51.9	82	46.6	4	9	270	0.00	29.703 
04:10	50.5	50.5	50.5	83	45.5	4	10	270	0.00	29.703 
04:15	49.8	48.6	49.8	83	44.8	4	7	270	0.00	29.721 
04:20	49.2	49.2	49.2	84	44.6	3	6	292	0.00	29.721 
04:25	48.6	47.3	48.6	84	44.0	4	9	270	0.00	29.721 
04:30	48.2	46.8	48.2	84	43.6	4	7	270	0.00	29.733 
04:35	48.0	48.0	48.0	85	43.7	3	7	270	0.00	29.733 
04:40	47.9	47.9	47.9	85	43.6	3	5	270	0.00	29.733 
04:45	47.4	45.9	47.4	85	43.1	4	8	270	0.00	29.742 
04:50	47.1	47.1	47.1	84	42.5	3	7	270	0.00	29.742 
04:55	46.7	45.1	46.7	83	41.8	4	7	270	0.00	29.742 
05:00	46.4	46.4	46.4	83	41.5	3	6	270	0.00	29.752 
05:05	46.2	46.2	46.2	83	41.3	1	4	270	0.00	29.752 
05:10	46.2	46.2	46.2	84	41.6	2	6	270	0.00	29.752 
05:15	46.1	46.1	46.1	84	41.5	3	6	248	0.00	29.751 
05:20	46.0	46.0	46.0	84	41.4	3	9	248	0.00	29.751 
05:25	45.8	45.8	45.8	84	41.2	2	9	248	0.00	29.751 
05:30	45.7	45.7	45.7	83	40.8	2	8	270	0.00	29.762 
05:35	45.5	45.5	45.5	83	40.6	1	4	270	0.00	29.762 
05:40	45.2	45.2	45.2	82	40.0	2	4	270	0.00	29.762 
05:45	44.6	44.6	44.6	82	39.4	2	6	270	0.00	29.767 
05:50	44.3	44.3	44.3	82	39.2	2	4	248	0.00	29.767 
05:55	44.1	44.1	44.1	82	39.0	2	5	270	0.00	29.767 
06:00	44.1	44.1	44.1	83	39.3	2	5	270	0.00	29.770 
06:05	43.9	43.9	43.9	82	38.8	2	5	248	0.00	29.770 
06:10	43.8	43.8	43.8	82	38.7	2	5	248	0.00	29.770 
06:15	43.3	43.3	43.3	81	37.9	2	5	270	0.00	29.781 
06:20	42.9	40.7	42.9	80	37.2	4	11	270	0.00	29.781 
06:25	42.6	42.6	42.6	80	36.9	3	11	270	0.00	29.781 
06:30	42.5	42.5	42.5	81	37.1	3	6	270	0.00	29.785 
06:35	42.3	40.0	42.3	81	36.9	4	6	270	0.00	29.785 
06:40	42.2	42.2	42.2	81	36.8	2	4	248	0.00	29.785 
06:45	42.2	42.2	42.2	81	36.8	3	6	270	0.00	29.795 
06:50	42.1	42.1	42.1	81	36.7	2	5	292	0.00	29.795 
06:55	41.9	41.9	41.9	80	36.2	3	7	270	0.00	29.795 
07:00	41.8	41.8	41.8	80	36.1	2	6	292	0.00	29.793 
07:05	41.8	41.8	41.8	80	36.1	2	6	270	0.00	29.793 
07:10	41.6	41.6	41.6	81	36.2	2	5	270	0.00	29.793 
07:15	41.6	41.6	41.6	80	35.9	2	6	270	0.00	29.813 
07:20	41.5	41.5	41.5	80	35.8	3	6	270	0.00	29.813 
07:25	41.3	41.3	41.3	80	35.6	2	5	292	0.00	29.813 
07:30	40.9	40.9	40.9	79	34.9	3	9	248	0.00	29.820 
07:35	40.3	40.3	40.3	79	34.3	3	6	270	0.00	29.820 
07:40	40.1	40.1	40.1	80	34.4	2	6	248	0.00	29.820 
07:45	39.6	39.6	39.6	80	33.9	3	9	248	0.00	29.846 
07:50	39.3	39.3	39.3	80	33.7	3	9	248	0.00	29.846 
07:55	39.1	36.3	39.1	81	33.8	4	9	248	0.00	29.846 
08:00	38.8	38.8	38.8	81	33.5	3	8	248	0.00	29.867 
08:05	38.6	38.6	38.6	81	33.3	2	5	248	0.00	29.867 
08:10	38.5	38.5	38.5	81	33.2	2	7	248	0.00	29.867 
08:15	38.2	38.2	38.2	81	32.9	2	7	248	0.00	29.862 
08:20	38.0	38.0	38.0	81	32.7	2	5	248	0.00	29.862 
08:25	37.8	37.8	37.8	79	31.9	3	6	270	0.00	29.862 
08:30	37.3	37.3	37.3	78	31.1	3	6	270	0.00	29.872 
08:35	37.2	37.2	37.2	78	31.0	3	9	248	0.00	29.872 
08:40	37.0	37.0	37.0	78	30.8	3	7	248	0.00	29.872 
08:45	37.0	37.0	37.0	78	30.8	2	10	248	0.00	29.886 
08:50	37.0	37.0	37.0	78	30.8	2	5	248	0.00	29.886 
08:55	36.9	36.9	36.9	78	30.7	2	6	248	0.00	29.886 
09:00	36.8	36.8	36.8	78	30.6	3	7	248	0.00	29.901 
09:05	36.6	36.6	36.6	79	30.7	2	5	270	0.00	29.901 
09:10	36.6	36.6	36.6	79	30.7	2	6	248	0.00	29.901 
09:15	36.5	36.5	36.5	78	30.3	3	7	270	0.00	29.900 
09:20	36.3	36.3	36.3	78	30.1	3	9	248	0.00	29.900 
09:25	36.3	36.3	36.3	78	30.1	2	6	248	0.00	29.900 
09:30	36.2	36.2	36.2	78	30.0	3	7	248	0.00	29.907 
09:35	36.2	36.2	36.2	78	30.0	2	6	270	0.00	29.907 
09:40	36.0	36.0	36.0	78	29.8	3	6	270	0.00	29.907 
09:45	36.0	36.0	36.0	77	29.5	3	6	270	0.00	29.903 
09:50	35.9	35.9	35.9	77	29.4	3	5	270	0.00	29.903 
09:55	35.8	35.8	35.8	78	29.6	3	5	270	0.00	29.903 
10:00	35.8	35.8	35.8	78	29.6	3	5	270	0.00	29.918 
10:05	35.8	32.5	35.8	77	29.3	4	6	270	0.00	29.918 
10:10	35.8	32.5	35.8	76	29.0	4	7	270	0.00	29.918 
10:15	35.8	35.8	35.8	76	29.0	3	6	270	0.00	29.925 
10:20	35.9	35.9	35.9	76	29.1	2	6	270	0.00	29.925 
10:25	35.8	35.8	35.8	76	29.0	3	8	270	0.00	29.925 
10:30	35.8	35.8	35.8	75	28.7	3	6	270	0.00	29.940 
10:35	35.8	35.8	35.8	76	29.0	2	4	248	0.00	29.940 
10:40	35.8	35.8	35.8	75	28.7	2	5	270	0.00	29.940 
10:45	35.8	35.8	35.8	75	28.7	2	5	270	0.00	29.940 
10:50	35.8	35.8	35.8	76	29.0	2	5	270	0.00	29.940 
10:55	35.6	35.6	35.6	75	28.5	3	6	270	0.00	29.940 
11:00	35.5	35.5	35.5	75	28.4	3	7	248	0.00	29.954 
11:05	35.3	35.3	35.3	76	28.5	2	5	248	0.00	29.954 
11:10	35.3	35.3	35.3	76	28.5	3	5	270	0.00	29.954 
11:15	35.3	35.3	35.3	76	28.5	2	4	270	0.00	29.948 
11:20	35.3	35.3	35.3	76	28.5	3	6	248	0.00	29.948 
11:25	35.2	35.2	35.2	76	28.4	3	5	270	0.00	29.948 
11:30	35.0	35.0	35.0	75	27.9	3	6	248	0.00	29.949 
11:35	34.9	34.9	34.9	75	27.8	2	5	248	0.00	29.949 
11:40	34.9	34.9	34.9	75	27.8	2	6	270	0.00	29.949 
11:45	35.0	35.0	35.0	75	27.9	2	9	270	0.00	29.956 
11:50	35.2	35.2	35.2	74	27.8	2	6	270	0.00	29.956 
11:55	35.2	35.2	35.2	74	27.8	2	5	270	0.00	29.956 
12:00	35.2	35.2	35.2	73	27.4	2	6	270	0.00	29.954 
12:05	35.0	35.0	35.0	73	27.2	3	4	270	0.00	29.954 
12:10	35.0	35.0	35.0	72	26.9	3	5	270	0.00	29.954 
12:15	35.3	35.3	35.3	73	27.5	2	5	248	0.00	29.968 
12:20	35.5	35.5	35.5	72	27.4	2	6	248	0.00	29.968 
12:25	35.5	35.5	35.5	71	27.0	2	5	248	0.00	29.968 
12:30	35.5	35.5	35.5	72	27.4	1	4	248	0.00	29.965 
12:35	35.2	35.2	35.2	72	27.1	3	6	270	0.00	29.965 
12:40	34.9	34.9	34.9	73	27.1	2	5	248	0.00	29.965 
12:45	34.7	34.7	34.7	73	26.9	2	4	248	0.00	29.967 
12:50	34.6	34.6	34.6	73	26.9	3	6	270	0.00	29.967 
12:55	34.7	34.7	34.7	73	26.9	3	6	270	0.00	29.967 
13:00	34.6	34.6	34.6	73	26.9	2	5	270	0.00	29.962 
13:05	34.6	34.6	34.6	72	26.5	3	5	270	0.00	29.962 
13:10	34.6	34.6	34.6	73	26.9	2	6	270	0.00	29.962 
13:15	34.6	34.6	34.6	72	26.5	3	5	292	0.00	29.971 
13:20	34.9	34.9	34.9	72	26.8	2	4	248	0.00	29.971 
13:25	34.9	34.9	34.9	71	26.5	2	6	292	0.00	29.971 
13:30	34.9	34.9	34.9	70	26.1	2	4	270	0.00	29.945 
13:35	35.0	35.0	35.0	72	26.9	1	2	292	0.00	29.945 
13:40	35.3	35.3	35.3	71	26.9	1	3	270	0.00	29.945 
13:45	35.3	35.3	35.3	69	26.2	3	5	248	0.00	29.958 
13:50	35.5	35.5	35.5	68	26.0	2	7	292	0.00	29.958 
13:55	35.6	35.6	35.6	68	26.1	2	4	270	0.00	29.958 
14:00	35.6	35.6	35.6	69	26.4	1	3	248	0.00	29.960 
14:05	35.3	35.3	35.3	69	26.2	2	4	248	0.00	29.960 
14:10	35.2	35.2	35.2	70	26.4	2	4	270	0.00	29.960 
14:15	35.0	35.0	35.0	71	26.6	2	4	270	0.00	29.967 
14:20	34.9	34.9	34.9	71	26.5	2	9	270	0.00	29.967 
14:25	34.9	34.9	34.9	70	26.1	3	6	270	0.00	29.967 
14:30	34.9	34.9	34.9	69	25.8	2	5	292	0.00	29.968 
14:35	34.7	34.7	34.7	69	25.6	2	5	292	0.00	29.968 
14:40	34.6	34.6	34.6	68	25.1	3	5	270	0.00	29.968 
14:45	34.6	34.6	34.6	68	25.1	1	4	270	0.00	29.979 
14:50	34.7	34.7	34.7	66	24.5	2	4	270	0.00	29.979 
14:55	34.6	34.6	34.6	65	24.1	3	6	270	0.00	29.979 
15:00	34.4	34.4	34.4	65	23.9	2	5	292	0.00	29.985 
15:05	34.4	34.4	34.4	65	23.9	2	4	292	0.00	29.985 
15:10	34.6	34.6	34.6	66	24.4	2	5	248	0.00	29.985 
15:15	34.7	34.7	34.7	68	25.2	1	4	248	0.00	29.997 
15:20	34.6	34.6	34.6	68	25.1	2	5	248	0.00	29.997 
15:25	34.4	34.4	34.4	67	24.6	2	6	270	0.00	29.997 
15:30	34.1	34.1	34.1	67	24.3	2	4	270	0.00	30.003 
15:35	34.1	34.1	34.1	66	23.9	2	6	270	0.00	30.003 
15:40	34.0	34.0	34.0	65	23.5	2	6	338	0.00	30.003 
15:45	33.8	33.8	33.8	65	23.3	2	5	315	0.00	30.020 
15:50	33.8	33.8	33.8	66	23.7	1	3	292	0.00	30.020 
15:55	34.0	34.0	34.0	67	24.2	0	2	292	0.00	30.020 
16:00	34.0	34.0	34.0	66	23.9	2	4	248	0.00	30.031 
16:05	33.7	33.7	33.7	66	23.6	2	4	270	0.00	30.031 
16:10	33.5	33.5	33.5	66	23.4	1	4	270	0.00	30.031 
16:15	33.5	33.5	33.5	66	23.4	2	4	270	0.00	30.043 
16:20	33.5	33.5	33.5	66	23.4	2	3	270	0.00	30.043 
16:25	33.4	33.4	33.4	67	23.6	2	4	270	0.00	30.043 
16:30	33.2	33.2	33.2	68	23.8	1	3	270	0.00	30.056 
16:35	33.2	33.2	33.2	68	23.8	1	3	270	0.00	30.056 
16:40	33.1	33.1	33.1	68	23.7	1	2	270	0.00	30.056 
16:45	33.1	33.1	33.1	67	23.4	1	3	270	0.00	30.059 
16:50	33.1	33.1	33.1	67	23.4	1	3	270	0.00	30.059 
16:55	33.1	33.1	33.1	67	23.4	2	4	270	0.00	30.059 
17:00	33.1	33.1	33.1	68	23.7	1	4	270	0.00	30.074 
17:05	32.9	32.9	32.9	68	23.5	1	3	270	0.00	30.074 
17:10	32.8	32.8	32.8	68	23.4	1	5	338	0.00	30.074 
17:15	32.8	32.8	32.8	68	23.4	2	4	292	0.00	30.090 
17:20	32.7	32.7	32.7	68	23.3	1	5	270	0.00	30.090 
17:25	32.7	32.7	32.7	68	23.3	2	4	270	0.00	30.090 
17:30	32.5	32.5	32.5	68	23.1	0	3	270	0.00	30.086 
17:35	32.4	32.4	32.4	67	22.7	2	4	270	0.00	30.086 
17:40	32.2	32.2	32.2	66	22.1	1	4	270	0.00	30.086 
17:45	32.1	32.1	32.1	67	22.4	1	3	270	0.00	30.075 
17:50	31.9	31.9	31.9	67	22.2	0	2	270	0.00	30.075 
17:55	31.9	31.9	31.9	67	22.2	0	2	270	0.00	30.075 
18:00	31.9	31.9	31.9	67	22.2	1	3	270	0.00	30.079 
18:05	31.9	31.9	31.9	68	22.6	0	1	270	0.00	30.079 
18:10	31.9	31.9	31.9	68	22.6	0	1	270	0.00	30.079 
18:15	31.9	31.9	31.9	68	22.6	0	2	270	0.00	30.079 
18:20	31.9	31.9	31.9	68	22.6	1	4	270	0.00	30.079 
18:25	31.9	31.9	31.9	68	22.6	1	3	338	0.00	30.079 
18:30	31.8	31.8	31.8	68	22.5	1	3	292	0.00	30.095 
18:35	31.8	31.8	31.8	68	22.5	1	3	292	0.00	30.095 
18:40	31.8	31.8	31.8	67	22.1	0	2	292	0.00	30.095 
18:45	31.8	31.8	31.8	68	22.5	0	1	292	0.00	30.092 
18:50	31.8	31.8	31.8	68	22.5	0	3	292	0.00	30.092 
18:55	31.6	31.6	31.6	68	22.3	0	2	292	0.00	30.092 
19:00	31.6	31.6	31.6	69	22.6	0	2	292	0.00	30.088 
19:05	31.6	31.6	31.6	69	22.6	0	2	292	0.00	30.088 
19:10	31.6	31.6	31.6	70	23.0	1	3	292	0.00	30.088 
19:15	31.5	31.5	31.5	69	22.5	1	4	292	0.00	30.119 
19:20	31.3	31.3	31.3	70	22.7	1	3	292	0.00	30.119 
19:25	31.2	31.2	31.2	70	22.6	2	3	292	0.00	30.119 
19:30	31.0	31.0	31.0	70	22.4	2	5	338	0.00	30.123 
19:35	31.0	31.0	31.0	70	22.4	1	5	315	0.00	30.123 
19:40	30.9	30.9	30.9	70	22.3	1	3	315	0.00	30.123 
19:45	30.7	30.7	30.7	69	21.8	2	4	270	0.00	30.147 
19:50	30.6	30.6	30.6	69	21.7	2	4	270	0.00	30.147 
19:55	30.4	30.4	30.4	70	21.8	1	3	270	0.00	30.147 
20:00	30.3	30.3	30.3	70	21.7	2	4	292	0.00	30.117 
20:05	30.1	30.1	30.1	69	21.2	2	4	292	0.00	30.117 
20:10	30.0	30.0	30.0	70	21.4	1	3	292	0.00	30.117 
20:15	30.0	30.0	30.0	70	21.4	2	3	292	0.00	30.133 
20:20	29.8	29.8	29.8	70	21.2	2	4	292	0.00	30.133 
20:25	29.8	29.8	29.8	70	21.2	1	3	315	0.00	30.133 
20:30	29.8	29.8	29.8	71	21.6	1	4	315	0.00	30.122 
20:35	29.8	29.8	29.8	71	21.6	0	2	315	0.00	30.122 
20:40	29.7	29.7	29.7	71	21.5	0	2	315	0.00	30.122 
20:45	29.7	29.7	29.7	71	21.5	1	3	315	0.00	30.131 
20:50	29.7	29.7	29.7	71	21.5	1	4	315	0.00	30.131 
20:55	29.7	29.7	29.7	71	21.5	0	2	315	0.00	30.131 
21:00	29.5	29.5	29.5	70	20.9	2	3	315	0.00	30.148 
21:05	29.5	29.5	29.5	69	20.6	2	4	270	0.00	30.148 
21:10	29.5	29.5	29.5	70	20.9	1	4	292	0.00	30.148 
21:15	29.5	29.5	29.5	70	20.9	1	3	292	0.00	30.157 
21:20	29.4	29.4	29.4	70	20.8	1	3	292	0.00	30.157 
21:25	29.4	29.4	29.4	70	20.8	1	3	292	0.00	30.157 
21:30	29.4	29.4	29.4	71	21.2	1	2	292	0.00	30.157 
21:35	29.3	29.3	29.3	71	21.1	1	3	315	0.00	30.157 
21:40	29.1	29.1	29.1	71	20.9	1	3	292	0.00	30.157 
21:45	29.1	29.1	29.1	71	20.9	1	3	292	0.00	30.143 
21:50	29.0	29.0	29.0	70	20.5	1	4	270	0.00	30.143 
21:55	29.0	29.0	29.0	70	20.5	1	3	338	0.00	30.143 
22:00	29.0	29.0	29.0	70	20.5	1	4	292	0.00	30.164 
22:05	29.0	29.0	29.0	70	20.5	1	3	292	0.00	30.164 
22:10	29.0	29.0	29.0	69	20.1	1	3	270	0.00	30.164 
22:15	29.0	29.0	29.0	70	20.5	1	3	270	0.00	30.191 
22:20	29.0	29.0	29.0	69	20.1	2	6	338	0.00	30.191 
22:25	29.0	29.0	29.0	69	20.1	2	4	315	0.00	30.191 
22:30	29.0	29.0	29.0	69	20.1	1	2	270	0.00	30.184 
22:35	28.8	28.8	28.8	69	19.9	0	2	292	0.00	30.184 
22:40	28.7	28.7	28.7	69	19.8	0	3	292	0.00	30.184 
22:45	28.7	28.7	28.7	70	20.2	1	3	292	0.00	30.182 
22:50	28.7	28.7	28.7	69	19.8	1	4	292	0.00	30.182 
22:55	28.7	28.7	28.7	69	19.8	1	4	0	0.00	30.182 
23:00	28.5	28.5	28.5	69	19.6	0	2	0	0.00	30.167 
23:05	28.5	28.5	28.5	69	19.6	0	2	0	0.00	30.167 
23:10	28.5	28.5	28.5	69	19.6	0	3	292	0.00	30.167 
23:15	28.5	28.5	28.5	69	19.6	0	3	315	0.00	30.165 
23:20	28.5	28.5	28.5	69	19.6	1	3	315	0.00	30.165 
23:25	28.5	28.5	28.5	69	19.6	1	3	315	0.00	30.165 
23:30	28.5	28.5	28.5	69	19.6	0	3	315	0.00	30.180 
23:35	28.5	28.5	28.5	69	19.6	0	3	270	0.00	30.180 
23:40	28.5	28.5	28.5	69	19.6	1	5	270	0.00	30.180 
23:45	28.7	28.7	28.7	69	19.8	0	1	270	0.00	30.191 
23:50	28.5	28.5	28.5	69	19.6	0	3	270	0.00	30.191 
23:55	28.5	28.5	28.5	69	19.6	1	3	270	0.00	30.191 

CoCoRaHS
IN-AL-39
A2 Web Hosting
Creative Commons License
GoDaddy
search engine by freefind advanced

loaded 2018-12-19 10:19:19 • last modified 2010-11-18 10:43:29
Privacy PolicyDisclaimer
• wx.awcolley.com is powered by PmWiki v.2002016 •
• all content (unless otherwise noted) © 2018 A W Colley